Terminal Aerodrome Forecast
Issued by NWS

Home | Current Version | Previous Version | Graphics & Text | Print | Product List | Glossary On
Versions: 1 2 3 4 5 6 7 8 9 10 11 12 13 14 15 16 17 18 19 20 21 22 23 24
412
FTUS43 KFGF 302017 AAA
TAFBJI
TAF AMD
KBJI 302017Z 3020/0118 14006KT P6SM BKN011
      TEMPO 3020/3021 SCT011
     FM302100 14007KT P6SM SCT020
     FM011100 13003KT P6SM BKN008
     FM011300 13004KT P6SM BKN003
     FM011400 13004KT P6SM BKN050=

USA.gov is the U.S. government's official web portal to all federal, state and local government web resources and services.